Weather at Nashville International Airport

Public forecast

Using degrees Fahrenheit for public forecast. Weather courtesy of forecast.io.

Current aviation weather report (METAR) for Nashville International Airport

2023/03/20 08:53 (retrieved 38 minutes ago)

KBNA 200853Z 18003KT 10SM CLR M05/M08 A3038 RMK AO2 SLP292 T10501078 58003

Aviation forecast (TAF) for Nashville International Airport

2023/03/20 06:24 (retrieved 3 hours ago)

TAF KBNA 200520Z 2006/2106 VRB03KT P6SM SKC FM201500 20005KT P6SM FEW250 FM210000 17003KT P6SM SKC